createdAt,value
2023-02-11T00:01:35.442Z,7.30
2023-02-11T00:04:04.358Z,7.63
2023-02-11T00:06:33.008Z,10.98
2023-02-11T00:09:00.560Z,7.88
2023-02-11T00:11:31.146Z,6.13
2023-02-11T00:14:00.388Z,8.73
2023-02-11T00:16:28.054Z,9.23
2023-02-11T00:18:55.422Z,9.57
2023-02-11T00:21:25.120Z,9.52
2023-02-11T00:23:53.134Z,7.32
2023-02-11T00:26:26.039Z,12.18
2023-02-11T00:28:53.391Z,10.02
2023-02-11T00:31:22.871Z,8.90
2023-02-11T00:33:50.068Z,10.18
2023-02-11T00:36:19.952Z,8.32
2023-02-11T00:38:48.333Z,11.13
2023-02-11T00:41:15.288Z,10.80
2023-02-11T00:43:42.424Z,8.88
2023-02-11T00:46:09.347Z,10.82
2023-02-11T00:48:36.465Z,9.10
2023-02-11T00:51:04.183Z,7.90
2023-02-11T00:53:31.946Z,9.15
2023-02-11T00:55:58.871Z,9.93
2023-02-11T00:58:25.875Z,9.80
2023-02-11T01:00:53.590Z,10.15
2023-02-11T01:03:20.464Z,9.60
2023-02-11T01:05:48.362Z,8.55
2023-02-11T01:08:15.588Z,8.45
2023-02-11T01:10:43.985Z,7.93
2023-02-11T01:13:11.105Z,10.52
2023-02-11T01:15:37.918Z,8.90
2023-02-11T01:18:05.976Z,8.75
2023-02-11T01:20:33.046Z,6.38
2023-02-11T01:22:59.936Z,8.73
2023-02-11T01:25:26.780Z,8.85
2023-02-11T01:27:53.615Z,7.65
2023-02-11T01:30:20.400Z,8.10
2023-02-11T01:32:47.509Z,10.00
2023-02-11T01:35:14.285Z,9.18
2023-02-11T01:37:41.877Z,9.80
2023-02-11T01:40:13.742Z,8.88
2023-02-11T01:42:40.888Z,8.75
2023-02-11T01:45:55.747Z,8.70
2023-02-11T01:48:44.324Z,9.82
2023-02-11T01:51:16.508Z,8.40
2023-02-11T01:54:04.603Z,9.60
2023-02-11T01:56:50.466Z,7.65
2023-02-11T01:59:30.749Z,6.97
2023-02-11T02:02:00.718Z,7.37
2023-02-11T02:04:31.677Z,6.63
2023-02-11T02:07:05.568Z,7.93
2023-02-11T02:09:49.244Z,8.57
2023-02-11T02:12:16.143Z,8.60
2023-02-11T02:14:43.322Z,10.00
2023-02-11T02:17:38.872Z,8.35
2023-02-11T02:20:37.796Z,5.93
2023-02-11T02:23:20.891Z,8.13
2023-02-11T02:26:04.032Z,8.77
2023-02-11T02:28:57.942Z,9.32
2023-02-11T02:31:47.236Z,8.98
2023-02-11T02:34:18.731Z,8.88
2023-02-11T02:36:59.130Z,9.52
2023-02-11T02:39:30.901Z,10.93
2023-02-11T02:41:58.475Z,10.10
2023-02-11T02:44:25.949Z,8.85
2023-02-11T02:46:52.829Z,13.45
2023-02-11T02:49:19.659Z,10.48
2023-02-11T02:52:01.471Z,8.23
2023-02-11T02:54:49.487Z,8.20
2023-02-11T02:57:40.299Z,7.65
2023-02-11T03:00:29.615Z,8.20
2023-02-11T03:03:10.648Z,7.95
2023-02-11T03:06:15.065Z,8.43
2023-02-11T03:09:12.708Z,9.93
2023-02-11T03:11:40.427Z,7.50
2023-02-11T03:14:10.899Z,9.52
2023-02-11T03:16:39.576Z,8.73
2023-02-11T03:19:10.266Z,8.35
2023-02-11T03:21:40.119Z,6.47
2023-02-11T03:24:12.333Z,8.48
2023-02-11T03:26:45.720Z,7.28
2023-02-11T03:29:38.724Z,8.88
2023-02-11T03:32:29.112Z,9.25
2023-02-11T03:35:19.835Z,7.95
2023-02-11T03:38:18.163Z,9.57
2023-02-11T03:40:45.654Z,7.72
2023-02-11T03:43:17.229Z,5.22
2023-02-11T03:45:47.155Z,9.98
2023-02-11T03:48:24.774Z,18.38
2023-02-11T03:50:54.078Z,9.15
2023-02-11T03:53:22.875Z,9.38
2023-02-11T03:55:52.364Z,7.00
2023-02-11T03:58:19.447Z,8.63
2023-02-11T04:00:46.366Z,6.97
2023-02-11T04:03:13.678Z,8.18
2023-02-11T04:05:40.891Z,8.18
2023-02-11T04:08:07.917Z,9.68
2023-02-11T04:10:34.940Z,6.55
2023-02-11T04:13:01.800Z,8.60
2023-02-11T04:15:28.575Z,8.82
2023-02-11T04:17:55.443Z,8.90
2023-02-11T04:20:22.258Z,8.73
2023-02-11T04:22:49.098Z,9.20
2023-02-11T04:25:16.299Z,9.90
2023-02-11T04:27:43.099Z,7.18
2023-02-11T04:30:12.813Z,8.13
2023-02-11T04:32:39.611Z,6.85
2023-02-11T04:35:07.136Z,8.05
2023-02-11T04:37:33.972Z,9.52
2023-02-11T04:40:00.773Z,7.05
2023-02-11T04:42:27.635Z,8.40
2023-02-11T04:44:54.474Z,7.18
2023-02-11T04:47:21.288Z,7.72
2023-02-11T04:49:48.112Z,7.78
2023-02-11T04:52:14.997Z,9.00
2023-02-11T04:54:41.830Z,7.15
2023-02-11T04:57:08.710Z,7.65
2023-02-11T04:59:35.542Z,8.52
2023-02-11T05:02:02.414Z,9.63
2023-02-11T05:04:29.276Z,7.90
2023-02-11T05:06:58.603Z,9.38
2023-02-11T05:09:25.519Z,9.05
2023-02-11T05:11:52.347Z,7.85
2023-02-11T05:14:19.449Z,7.18
2023-02-11T05:16:46.341Z,9.13
2023-02-11T05:19:13.442Z,9.68
2023-02-11T05:21:47.744Z,6.45
2023-02-11T05:24:23.629Z,7.00
2023-02-11T05:26:50.399Z,11.95
2023-02-11T05:29:17.150Z,9.57
2023-02-11T05:31:43.913Z,7.82
2023-02-11T05:34:10.700Z,8.35
2023-02-11T05:36:37.459Z,11.32
2023-02-11T05:39:04.362Z,9.07
2023-02-11T05:41:31.159Z,8.43
2023-02-11T05:43:57.963Z,6.47
2023-02-11T05:46:24.952Z,8.32
2023-02-11T05:48:51.831Z,10.05
2023-02-11T05:51:18.642Z,8.77
2023-02-11T05:53:45.816Z,9.02
2023-02-11T05:56:14.503Z,7.32
2023-02-11T05:58:41.366Z,9.20
2023-02-11T06:01:08.248Z,10.32
2023-02-11T06:03:35.041Z,8.52
2023-02-11T06:06:01.873Z,8.48
2023-02-11T06:08:28.698Z,10.98
2023-02-11T06:10:55.696Z,9.35
2023-02-11T06:13:22.493Z,7.72
2023-02-11T06:15:59.465Z,8.02
2023-02-11T06:18:26.504Z,8.95
2023-02-11T06:20:53.344Z,9.23
2023-02-11T06:23:20.301Z,8.55
2023-02-11T06:25:47.163Z,7.45
2023-02-11T06:28:14.142Z,9.55
2023-02-11T06:30:41.266Z,9.45
2023-02-11T06:33:08.116Z,11.15
2023-02-11T06:35:35.352Z,6.90
2023-02-11T06:38:02.446Z,7.18
2023-02-11T06:40:29.274Z,10.60
2023-02-11T06:42:56.236Z,10.52
2023-02-11T06:45:23.096Z,9.30
2023-02-11T06:47:52.765Z,11.27
2023-02-11T06:50:19.675Z,8.82
2023-02-11T06:52:46.533Z,9.75
2023-02-11T06:55:13.806Z,9.73
2023-02-11T06:57:40.687Z,10.73
2023-02-11T07:00:08.969Z,9.02
2023-02-11T07:02:36.268Z,10.50
2023-02-11T07:05:03.133Z,8.63
2023-02-11T07:07:32.390Z,8.40
2023-02-11T07:10:00.530Z,9.73
2023-02-11T07:12:27.357Z,9.25
2023-02-11T07:14:55.753Z,10.68
2023-02-11T07:17:22.756Z,12.10
2023-02-11T07:19:49.517Z,9.02
2023-02-11T07:22:16.370Z,9.18
2023-02-11T07:24:43.222Z,9.45
2023-02-11T07:27:09.985Z,7.70
2023-02-11T07:29:36.864Z,11.15
2023-02-11T07:32:03.715Z,8.55
2023-02-11T07:34:30.525Z,10.80
2023-02-11T07:36:57.391Z,10.48
2023-02-11T07:39:27.268Z,8.90
2023-02-11T07:41:54.474Z,10.38
2023-02-11T07:44:21.788Z,9.70
2023-02-11T07:46:49.279Z,10.20
2023-02-11T07:49:16.521Z,10.45
2023-02-11T07:51:43.364Z,8.73
2023-02-11T07:54:12.134Z,13.30
2023-02-11T07:56:39.041Z,11.25
2023-02-11T07:59:05.830Z,11.43
2023-02-11T08:01:32.845Z,9.15
2023-02-11T08:04:01.078Z,10.60
2023-02-11T08:06:30.880Z,9.35
2023-02-11T08:08:58.029Z,8.55
2023-02-11T08:11:26.934Z,8.10
2023-02-11T08:13:55.099Z,8.82
2023-02-11T08:16:27.976Z,11.50
2023-02-11T08:18:58.065Z,9.30
2023-02-11T08:21:25.555Z,10.15
2023-02-11T08:23:52.493Z,11.13
2023-02-11T08:26:21.770Z,11.15
2023-02-11T08:28:50.689Z,10.20
2023-02-11T08:31:20.606Z,9.80
2023-02-11T08:33:48.013Z,8.25
2023-02-11T08:36:17.781Z,10.57
2023-02-11T08:38:45.258Z,10.20
2023-02-11T08:41:14.813Z,10.32
2023-02-11T08:43:43.419Z,8.80
2023-02-11T08:48:45.830Z,7.70
2023-02-11T08:51:25.105Z,8.35
2023-02-11T08:53:52.039Z,8.82
2023-02-11T08:56:20.296Z,10.40
2023-02-11T08:58:47.632Z,11.40
2023-02-11T09:01:22.837Z,9.63
2023-02-11T09:03:50.269Z,10.20
2023-02-11T09:06:18.557Z,9.50
2023-02-11T09:08:51.296Z,8.45
2023-02-11T09:11:21.829Z,7.45
2023-02-11T09:13:48.772Z,7.43
2023-02-11T09:16:30.973Z,9.82
2023-02-11T09:19:00.049Z,10.25
2023-02-11T09:21:27.316Z,9.27
2023-02-11T09:23:54.335Z,8.65
2023-02-11T09:26:27.335Z,9.23
2023-02-11T09:28:54.606Z,8.02
2023-02-11T09:31:24.706Z,10.05
2023-02-11T09:33:54.326Z,9.45
2023-02-11T09:36:28.624Z,7.78
2023-02-11T09:38:57.841Z,9.77
2023-02-11T09:41:24.586Z,5.03
2023-02-11T09:43:55.125Z,9.80
2023-02-11T09:46:23.687Z,9.13
2023-02-11T09:48:53.742Z,10.18
2023-02-11T09:51:39.081Z,9.73
2023-02-11T09:54:37.881Z,8.80
2023-02-11T09:57:22.917Z,11.85
2023-02-11T09:59:57.571Z,8.75
2023-02-11T10:02:45.000Z,9.88
2023-02-11T10:05:38.433Z,9.65
2023-02-11T10:08:09.845Z,9.52
2023-02-11T10:11:08.912Z,7.55
2023-02-11T10:13:55.137Z,9.18
2023-02-11T10:16:49.180Z,10.73
2023-02-11T10:19:24.997Z,10.75
2023-02-11T10:21:58.432Z,7.72
2023-02-11T10:24:28.713Z,7.43
2023-02-11T10:26:55.507Z,9.93
2023-02-11T10:29:57.367Z,11.23
2023-02-11T10:32:29.985Z,9.85
2023-02-11T10:35:02.396Z,11.57
2023-02-11T10:37:30.621Z,12.85
2023-02-11T10:39:57.455Z,10.13
2023-02-11T10:42:25.737Z,10.25
2023-02-11T10:44:52.486Z,9.68
2023-02-11T10:47:24.043Z,9.73
2023-02-11T10:49:50.921Z,10.43
2023-02-11T10:52:17.669Z,8.95
2023-02-11T10:54:59.608Z,9.88
2023-02-11T10:57:36.560Z,12.63
2023-02-11T11:00:22.956Z,10.63
2023-02-11T11:02:59.548Z,6.60
2023-02-11T11:05:36.113Z,10.20
2023-02-11T11:08:06.831Z,11.30
2023-02-11T11:10:43.356Z,12.35
2023-02-11T11:13:34.333Z,9.43
2023-02-11T11:16:18.331Z,8.43
2023-02-11T11:18:48.049Z,9.20
2023-02-11T11:21:33.433Z,10.18
2023-02-11T11:24:03.342Z,11.30
2023-02-11T11:26:42.334Z,12.07
2023-02-11T11:29:18.716Z,10.57
2023-02-11T11:31:58.064Z,9.10
2023-02-11T11:34:32.464Z,8.02
2023-02-11T11:37:01.412Z,10.40
2023-02-11T11:39:31.505Z,12.93
2023-02-11T11:42:00.894Z,11.50
2023-02-11T11:44:33.306Z,10.98
2023-02-11T11:47:11.933Z,10.25
2023-02-11T11:49:41.682Z,11.52
2023-02-11T11:52:37.324Z,9.40
2023-02-11T11:55:17.247Z,13.60
2023-02-11T11:57:44.405Z,14.20
2023-02-11T12:00:28.143Z,13.70
2023-02-11T12:03:11.062Z,9.95
2023-02-11T12:06:01.349Z,10.95
2023-02-11T12:08:35.870Z,10.97
2023-02-11T12:11:32.142Z,10.70
2023-02-11T12:14:17.186Z,12.50
2023-02-11T12:17:24.651Z,12.85
2023-02-11T12:20:19.211Z,12.60
2023-02-11T12:23:04.020Z,11.13
2023-02-11T12:25:56.922Z,13.18
2023-02-11T12:28:58.642Z,11.65
2023-02-11T12:31:55.999Z,9.52
2023-02-11T12:34:53.285Z,11.10
2023-02-11T12:37:42.968Z,8.43
2023-02-11T12:40:22.303Z,8.40
2023-02-11T12:43:17.700Z,9.45
2023-02-11T12:45:53.825Z,9.98
2023-02-11T12:48:44.835Z,12.60
2023-02-11T12:51:44.662Z,11.93
2023-02-11T12:54:17.565Z,11.27
2023-02-11T12:56:44.547Z,15.02
2023-02-11T12:59:49.993Z,12.30
2023-02-11T13:02:22.640Z,11.82
2023-02-11T13:04:55.568Z,13.18
2023-02-11T13:07:47.482Z,12.70
2023-02-11T13:10:29.733Z,12.93
2023-02-11T13:13:16.832Z,9.95
2023-02-11T13:15:48.355Z,14.07
2023-02-11T13:18:45.292Z,11.80
2023-02-11T13:21:15.170Z,15.20
2023-02-11T13:23:52.806Z,10.60
2023-02-11T13:26:33.762Z,14.18
2023-02-11T13:29:37.544Z,12.93
2023-02-11T13:32:14.859Z,12.13
2023-02-11T13:34:41.674Z,14.52
2023-02-11T13:37:26.814Z,12.43
2023-02-11T13:40:22.101Z,15.18
2023-02-11T13:42:48.916Z,12.13
2023-02-11T13:45:47.226Z,12.85
2023-02-11T13:48:26.979Z,12.25
2023-02-11T13:50:57.947Z,14.15
2023-02-11T13:53:25.392Z,13.23
2023-02-11T13:56:04.702Z,15.43
2023-02-11T13:58:31.512Z,14.88
2023-02-11T14:00:58.500Z,14.00
2023-02-11T14:03:44.085Z,12.77
2023-02-11T14:06:58.724Z,15.25
2023-02-11T14:09:35.883Z,14.70
2023-02-11T14:12:23.580Z,14.70
2023-02-11T14:15:18.877Z,14.13
2023-02-11T14:17:45.968Z,12.45
2023-02-11T14:20:44.000Z,14.10
2023-02-11T14:23:23.252Z,13.82
2023-02-11T14:26:13.216Z,15.35
2023-02-11T14:28:44.737Z,15.20
2023-02-11T14:31:17.908Z,14.68
2023-02-11T14:34:20.529Z,15.32
2023-02-11T14:36:54.413Z,11.88
2023-02-11T14:39:40.283Z,14.20
2023-02-11T14:42:18.950Z,12.57
2023-02-11T14:44:49.466Z,14.70
2023-02-11T14:47:21.078Z,13.13
2023-02-11T14:49:49.486Z,13.45
2023-02-11T14:52:29.714Z,15.20
2023-02-11T14:55:07.334Z,13.52
2023-02-11T14:57:34.519Z,13.05
2023-02-11T15:00:14.175Z,14.48
2023-02-11T15:02:43.982Z,14.68
2023-02-11T15:05:29.055Z,16.65
2023-02-11T15:08:04.781Z,14.60
2023-02-11T15:10:38.015Z,21.33
2023-02-11T15:13:05.607Z,17.27
2023-02-11T15:15:34.564Z,15.65
2023-02-11T15:18:03.414Z,14.02
2023-02-11T15:20:32.285Z,13.73
2023-02-11T15:23:02.836Z,14.80
2023-02-11T15:25:31.257Z,12.23
2023-02-11T15:27:59.911Z,12.73
2023-02-11T15:30:33.973Z,14.25
2023-02-11T15:33:03.526Z,13.45
2023-02-11T15:35:37.197Z,14.32
2023-02-11T15:38:05.161Z,14.15
2023-02-11T15:40:37.742Z,15.15
2023-02-11T15:43:07.616Z,17.40
2023-02-11T15:45:44.538Z,16.08
2023-02-11T15:48:18.669Z,13.20
2023-02-11T15:50:54.920Z,15.00
2023-02-11T15:53:25.050Z,15.40
2023-02-11T15:55:59.176Z,13.60
2023-02-11T15:58:26.558Z,11.90
2023-02-11T16:00:59.831Z,13.35
2023-02-11T16:03:32.650Z,13.02
2023-02-11T16:06:22.910Z,13.30
2023-02-11T16:09:05.580Z,14.40
2023-02-11T16:11:47.465Z,9.80
2023-02-11T16:14:40.583Z,12.07
2023-02-11T16:17:33.562Z,10.93
2023-02-11T16:20:00.586Z,11.85
2023-02-11T16:22:30.241Z,13.68
2023-02-11T16:24:59.316Z,11.50
2023-02-11T16:27:34.028Z,13.68
2023-02-11T16:30:01.116Z,12.73
2023-02-11T16:32:29.382Z,14.80
2023-02-11T16:34:58.688Z,12.82
2023-02-11T16:37:26.351Z,11.20
2023-02-11T16:39:59.166Z,14.80
2023-02-11T16:42:26.233Z,11.95
2023-02-11T16:44:53.019Z,13.13
2023-02-11T16:47:24.138Z,13.05
2023-02-11T16:49:51.217Z,11.75
2023-02-11T16:52:19.846Z,12.65
2023-02-11T16:54:46.694Z,16.65
2023-02-11T16:57:14.179Z,14.23
2023-02-11T16:59:41.037Z,13.00
2023-02-11T17:02:22.871Z,11.55
2023-02-11T17:04:55.026Z,12.68
2023-02-11T17:09:48.803Z,12.20
2023-02-11T17:12:15.632Z,12.95
2023-02-11T17:14:42.407Z,13.75
2023-02-11T17:17:10.172Z,16.20
2023-02-11T17:19:55.141Z,14.73
2023-02-11T17:22:21.987Z,12.30
2023-02-11T17:24:48.790Z,12.20
2023-02-11T17:27:15.666Z,14.05
2023-02-11T17:29:42.461Z,15.43
2023-02-11T17:32:09.410Z,12.05
2023-02-11T17:34:36.216Z,14.02
2023-02-11T17:37:08.831Z,13.27
2023-02-11T17:39:36.687Z,13.18
2023-02-11T17:42:03.987Z,15.82
2023-02-11T17:44:30.789Z,14.85
2023-02-11T17:46:57.636Z,17.63
2023-02-11T17:49:24.958Z,13.82
2023-02-11T17:51:51.731Z,17.15
2023-02-11T17:54:19.789Z,12.43
2023-02-11T17:56:48.415Z,11.43
2023-02-11T17:59:17.181Z,16.97
2023-02-11T18:01:44.353Z,18.90
2023-02-11T18:04:15.192Z,16.45
2023-02-11T18:06:42.394Z,13.75
2023-02-11T18:09:09.677Z,16.67
2023-02-11T18:11:38.254Z,19.25
2023-02-11T18:14:07.734Z,17.98
2023-02-11T18:16:36.659Z,13.02
2023-02-11T18:19:04.060Z,15.85
2023-02-11T18:21:30.980Z,13.50
2023-02-11T18:24:00.053Z,13.27
2023-02-11T18:26:28.211Z,17.58
2023-02-11T18:28:57.988Z,15.18
2023-02-11T18:31:25.400Z,16.42
2023-02-11T18:33:55.454Z,16.17
2023-02-11T18:36:22.773Z,14.87
2023-02-11T18:38:49.622Z,15.60
2023-02-11T18:41:16.435Z,15.52
2023-02-11T18:43:43.247Z,15.02
2023-02-11T18:46:12.571Z,17.58
2023-02-11T18:48:40.151Z,13.50
2023-02-11T18:51:10.174Z,18.15
2023-02-11T18:53:37.184Z,15.02
2023-02-11T18:56:12.828Z,17.17
2023-02-11T18:58:40.201Z,15.43
2023-02-11T19:01:11.186Z,15.48
2023-02-11T19:03:38.251Z,14.30
2023-02-11T19:06:05.287Z,15.82
2023-02-11T19:08:32.892Z,15.13
2023-02-11T19:10:59.673Z,16.92
2023-02-11T19:13:29.100Z,17.20
2023-02-11T19:15:56.008Z,18.70
2023-02-11T19:18:22.849Z,14.38
2023-02-11T19:20:49.674Z,19.15
2023-02-11T19:23:16.450Z,15.50
2023-02-11T19:25:47.783Z,15.02
2023-02-11T19:28:15.520Z,18.27
2023-02-11T19:30:42.613Z,20.05
2023-02-11T19:33:10.311Z,16.75
2023-02-11T19:35:37.225Z,15.13
2023-02-11T19:38:04.911Z,19.13
2023-02-11T19:40:31.965Z,11.85
2023-02-11T19:42:58.841Z,17.80
2023-02-11T19:45:26.856Z,16.45
2023-02-11T19:47:57.108Z,18.50
2023-02-11T19:50:24.594Z,18.88
2023-02-11T19:52:51.472Z,16.45
2023-02-11T19:55:18.641Z,17.17
2023-02-11T19:57:45.527Z,12.85
2023-02-11T20:00:12.874Z,20.08
2023-02-11T20:02:40.487Z,19.25
2023-02-11T20:05:07.912Z,19.48
2023-02-11T20:07:35.191Z,12.10
2023-02-11T20:10:02.433Z,21.30
2023-02-11T20:12:29.561Z,19.65
2023-02-11T20:14:56.449Z,17.48
2023-02-11T20:17:23.401Z,20.58
2023-02-11T20:19:50.529Z,20.77
2023-02-11T20:22:17.471Z,20.63
2023-02-11T20:24:44.540Z,16.13
2023-02-11T20:27:11.660Z,16.20
2023-02-11T20:29:39.139Z,17.27
2023-02-11T20:32:06.508Z,17.67
2023-02-11T20:34:33.628Z,17.35
2023-02-11T20:37:00.546Z,18.40
2023-02-11T20:39:27.790Z,15.60
2023-02-11T20:41:54.973Z,14.68
2023-02-11T20:44:22.817Z,17.52
2023-02-11T20:46:50.777Z,17.02
2023-02-11T20:49:21.445Z,16.95
2023-02-11T20:51:48.719Z,13.88
2023-02-11T20:54:18.268Z,18.42
2023-02-11T20:56:48.104Z,17.13
2023-02-11T20:59:16.650Z,20.80
2023-02-11T21:01:46.784Z,18.13
2023-02-11T21:04:16.882Z,16.87
2023-02-11T21:06:47.312Z,19.10
2023-02-11T21:09:20.747Z,15.70
2023-02-11T21:11:48.352Z,20.05
2023-02-11T21:14:15.211Z,18.70
2023-02-11T21:16:42.240Z,18.48
2023-02-11T21:19:09.220Z,17.40
2023-02-11T21:21:38.066Z,20.23
2023-02-11T21:24:09.410Z,16.75
2023-02-11T21:26:37.210Z,17.50
2023-02-11T21:29:05.390Z,17.73
2023-02-11T21:31:34.227Z,14.48
2023-02-11T21:34:01.229Z,15.65
2023-02-11T21:36:30.093Z,22.95
2023-02-11T21:38:57.062Z,19.20
2023-02-11T21:41:24.754Z,18.95
2023-02-11T21:43:52.223Z,16.88
2023-02-11T21:46:20.560Z,15.63
2023-02-11T21:48:47.799Z,16.00
2023-02-11T21:51:25.722Z,16.73
2023-02-11T21:53:54.737Z,20.15
2023-02-11T21:56:21.595Z,18.00
2023-02-11T21:58:52.944Z,17.42
2023-02-11T22:01:28.381Z,16.42
2023-02-11T22:03:55.334Z,21.50
2023-02-11T22:06:30.860Z,16.58
2023-02-11T22:08:58.512Z,17.65
2023-02-11T22:11:25.318Z,20.83
2023-02-11T22:13:56.461Z,20.73
2023-02-11T22:16:24.050Z,20.25
2023-02-11T22:18:51.424Z,15.68
2023-02-11T22:21:21.865Z,16.92
2023-02-11T22:23:49.139Z,14.20
2023-02-11T22:26:19.100Z,19.40
2023-02-11T22:28:46.546Z,19.55
2023-02-11T22:31:16.666Z,16.13
2023-02-11T22:33:43.943Z,19.50
2023-02-11T22:36:35.582Z,18.08
2023-02-11T22:39:08.050Z,17.65
2023-02-11T22:41:35.187Z,19.98
2023-02-11T22:44:02.017Z,18.48
2023-02-11T22:46:28.984Z,17.65
2023-02-11T22:48:56.058Z,21.30
2023-02-11T22:51:25.642Z,20.40
2023-02-11T22:53:54.402Z,18.77
2023-02-11T22:56:22.134Z,20.27
2023-02-11T22:58:49.739Z,20.85
2023-02-11T23:01:17.394Z,18.85
2023-02-11T23:03:44.590Z,19.73
2023-02-11T23:06:12.645Z,16.35
2023-02-11T23:08:40.816Z,16.95
2023-02-11T23:11:10.818Z,18.70
2023-02-11T23:13:39.559Z,16.05
2023-02-11T23:16:09.441Z,13.23
2023-02-11T23:18:37.514Z,14.45
2023-02-11T23:21:06.915Z,16.10
2023-02-11T23:23:37.266Z,18.25
2023-02-11T23:26:04.765Z,19.52
2023-02-11T23:28:31.587Z,15.65
2023-02-11T23:30:58.441Z,16.58
2023-02-11T23:33:25.323Z,13.88
2023-02-11T23:35:52.502Z,19.60
2023-02-11T23:38:19.407Z,17.25
2023-02-11T23:40:46.689Z,16.27
2023-02-11T23:43:13.454Z,18.55
2023-02-11T23:45:40.302Z,14.88
2023-02-11T23:48:07.268Z,16.92
2023-02-11T23:50:34.485Z,20.20
2023-02-11T23:53:01.366Z,18.40
2023-02-11T23:55:28.255Z,17.55
2023-02-11T23:57:55.044Z,16.77
